sensor_id;sensor_type;location;lat;lon;timestamp;P1;durP1;ratioP1;P2;durP2;ratioP2
19163;SDS011;9714;51.208;4.242;2022-11-30T00:01:38;76.77;;;29.63;;
19163;SDS011;9714;51.208;4.242;2022-11-30T00:04:06;84.37;;;31.13;;
19163;SDS011;9714;51.208;4.242;2022-11-30T00:06:35;91.13;;;29.13;;
19163;SDS011;9714;51.208;4.242;2022-11-30T00:09:08;71.90;;;28.90;;
19163;SDS011;9714;51.208;4.242;2022-11-30T00:11:37;82.07;;;30.20;;
19163;SDS011;9714;51.208;4.242;2022-11-30T00:14:05;70.57;;;28.10;;
19163;SDS011;9714;51.208;4.242;2022-11-30T00:16:32;80.53;;;31.03;;
19163;SDS011;9714;51.208;4.242;2022-11-30T00:18:59;94.27;;;32.40;;
19163;SDS011;9714;51.208;4.242;2022-11-30T00:21:25;81.03;;;30.37;;
19163;SDS011;9714;51.208;4.242;2022-11-30T00:23:52;77.33;;;29.90;;
19163;SDS011;9714;51.208;4.242;2022-11-30T00:26:21;78.83;;;29.23;;
19163;SDS011;9714;51.208;4.242;2022-11-30T00:28:48;74.13;;;30.00;;
19163;SDS011;9714;51.208;4.242;2022-11-30T00:31:17;72.23;;;28.00;;
19163;SDS011;9714;51.208;4.242;2022-11-30T00:33:45;66.07;;;28.83;;
19163;SDS011;9714;51.208;4.242;2022-11-30T00:36:13;75.73;;;27.47;;
19163;SDS011;9714;51.208;4.242;2022-11-30T00:38:41;74.20;;;26.20;;
19163;SDS011;9714;51.208;4.242;2022-11-30T00:41:09;71.20;;;26.23;;
19163;SDS011;9714;51.208;4.242;2022-11-30T00:43:37;72.13;;;26.77;;
19163;SDS011;9714;51.208;4.242;2022-11-30T00:46:05;66.90;;;25.77;;
19163;SDS011;9714;51.208;4.242;2022-11-30T00:48:33;61.50;;;26.50;;
19163;SDS011;9714;51.208;4.242;2022-11-30T00:51:00;69.03;;;26.50;;
19163;SDS011;9714;51.208;4.242;2022-11-30T00:53:27;60.77;;;25.17;;
19163;SDS011;9714;51.208;4.242;2022-11-30T00:55:54;61.87;;;23.83;;
19163;SDS011;9714;51.208;4.242;2022-11-30T00:58:21;55.20;;;24.93;;
19163;SDS011;9714;51.208;4.242;2022-11-30T01:00:49;59.03;;;23.10;;
19163;SDS011;9714;51.208;4.242;2022-11-30T01:03:16;63.17;;;23.97;;
19163;SDS011;9714;51.208;4.242;2022-11-30T01:05:43;54.10;;;22.40;;
19163;SDS011;9714;51.208;4.242;2022-11-30T01:08:10;60.63;;;22.80;;
19163;SDS011;9714;51.208;4.242;2022-11-30T01:10:38;48.80;;;21.53;;
19163;SDS011;9714;51.208;4.242;2022-11-30T01:13:06;50.13;;;21.87;;
19163;SDS011;9714;51.208;4.242;2022-11-30T01:15:35;54.73;;;22.03;;
19163;SDS011;9714;51.208;4.242;2022-11-30T01:18:05;49.03;;;20.93;;
19163;SDS011;9714;51.208;4.242;2022-11-30T01:20:32;51.23;;;21.07;;
19163;SDS011;9714;51.208;4.242;2022-11-30T01:22:59;57.87;;;21.67;;
19163;SDS011;9714;51.208;4.242;2022-11-30T01:25:26;59.07;;;22.57;;
19163;SDS011;9714;51.208;4.242;2022-11-30T01:27:53;57.93;;;22.50;;
19163;SDS011;9714;51.208;4.242;2022-11-30T01:30:20;58.77;;;21.83;;
19163;SDS011;9714;51.208;4.242;2022-11-30T01:32:47;57.30;;;22.57;;
19163;SDS011;9714;51.208;4.242;2022-11-30T01:35:16;59.87;;;21.87;;
19163;SDS011;9714;51.208;4.242;2022-11-30T01:37:43;65.33;;;24.13;;
19163;SDS011;9714;51.208;4.242;2022-11-30T01:40:10;60.33;;;22.57;;
19163;SDS011;9714;51.208;4.242;2022-11-30T01:42:43;56.40;;;23.23;;
19163;SDS011;9714;51.208;4.242;2022-11-30T01:45:11;54.20;;;23.20;;
19163;SDS011;9714;51.208;4.242;2022-11-30T01:47:39;59.43;;;23.17;;
19163;SDS011;9714;51.208;4.242;2022-11-30T01:50:10;50.63;;;21.87;;
19163;SDS011;9714;51.208;4.242;2022-11-30T01:52:43;57.53;;;21.80;;
19163;SDS011;9714;51.208;4.242;2022-11-30T01:55:15;54.90;;;22.90;;
19163;SDS011;9714;51.208;4.242;2022-11-30T01:57:46;44.83;;;20.60;;
19163;SDS011;9714;51.208;4.242;2022-11-30T02:00:16;51.43;;;22.30;;
19163;SDS011;9714;51.208;4.242;2022-11-30T02:02:46;49.23;;;21.10;;
19163;SDS011;9714;51.208;4.242;2022-11-30T02:05:18;49.90;;;21.63;;
19163;SDS011;9714;51.208;4.242;2022-11-30T02:07:47;49.00;;;22.93;;
19163;SDS011;9714;51.208;4.242;2022-11-30T02:10:15;50.93;;;22.30;;
19163;SDS011;9714;51.208;4.242;2022-11-30T02:12:48;54.60;;;23.20;;
19163;SDS011;9714;51.208;4.242;2022-11-30T02:15:42;53.50;;;22.47;;
19163;SDS011;9714;51.208;4.242;2022-11-30T02:18:31;55.23;;;22.07;;
19163;SDS011;9714;51.208;4.242;2022-11-30T02:21:10;52.80;;;22.50;;
19163;SDS011;9714;51.208;4.242;2022-11-30T02:23:55;54.83;;;23.83;;
19163;SDS011;9714;51.208;4.242;2022-11-30T02:26:49;52.17;;;22.83;;
19163;SDS011;9714;51.208;4.242;2022-11-30T02:29:28;58.43;;;24.20;;
19163;SDS011;9714;51.208;4.242;2022-11-30T02:32:00;69.03;;;23.77;;
19163;SDS011;9714;51.208;4.242;2022-11-30T02:34:34;59.57;;;23.80;;
19163;SDS011;9714;51.208;4.242;2022-11-30T02:37:03;75.10;;;25.40;;
19163;SDS011;9714;51.208;4.242;2022-11-30T02:39:33;73.17;;;24.13;;
19163;SDS011;9714;51.208;4.242;2022-11-30T02:41:59;72.37;;;22.97;;
19163;SDS011;9714;51.208;4.242;2022-11-30T02:44:26;107.00;;;22.27;;
19163;SDS011;9714;51.208;4.242;2022-11-30T02:47:07;103.23;;;23.77;;
19163;SDS011;9714;51.208;4.242;2022-11-30T02:49:45;78.53;;;22.43;;
19163;SDS011;9714;51.208;4.242;2022-11-30T02:52:17;185.17;;;24.70;;
19163;SDS011;9714;51.208;4.242;2022-11-30T02:54:47;81.97;;;24.07;;
19163;SDS011;9714;51.208;4.242;2022-11-30T02:57:14;134.80;;;25.70;;
19163;SDS011;9714;51.208;4.242;2022-11-30T02:59:42;159.37;;;25.80;;
19163;SDS011;9714;51.208;4.242;2022-11-30T03:02:09;130.83;;;24.53;;
19163;SDS011;9714;51.208;4.242;2022-11-30T03:04:36;82.33;;;22.67;;
19163;SDS011;9714;51.208;4.242;2022-11-30T03:07:04;102.60;;;21.80;;
19163;SDS011;9714;51.208;4.242;2022-11-30T03:09:31;125.37;;;25.67;;
19163;SDS011;9714;51.208;4.242;2022-11-30T03:11:58;121.27;;;25.03;;
19163;SDS011;9714;51.208;4.242;2022-11-30T03:14:25;154.13;;;22.40;;
19163;SDS011;9714;51.208;4.242;2022-11-30T03:16:54;107.53;;;24.43;;
19163;SDS011;9714;51.208;4.242;2022-11-30T03:19:21;163.73;;;27.40;;
19163;SDS011;9714;51.208;4.242;2022-11-30T03:21:48;173.77;;;26.33;;
19163;SDS011;9714;51.208;4.242;2022-11-30T03:24:15;150.20;;;27.17;;
19163;SDS011;9714;51.208;4.242;2022-11-30T03:26:42;119.77;;;25.07;;
19163;SDS011;9714;51.208;4.242;2022-11-30T03:29:09;130.37;;;23.93;;
19163;SDS011;9714;51.208;4.242;2022-11-30T03:31:36;94.33;;;24.83;;
19163;SDS011;9714;51.208;4.242;2022-11-30T03:34:05;145.37;;;26.43;;
19163;SDS011;9714;51.208;4.242;2022-11-30T03:36:31;118.40;;;26.20;;
19163;SDS011;9714;51.208;4.242;2022-11-30T03:38:58;147.20;;;27.67;;
19163;SDS011;9714;51.208;4.242;2022-11-30T03:41:25;160.73;;;25.27;;
19163;SDS011;9714;51.208;4.242;2022-11-30T03:43:52;88.73;;;24.07;;
19163;SDS011;9714;51.208;4.242;2022-11-30T03:46:20;109.53;;;24.00;;
19163;SDS011;9714;51.208;4.242;2022-11-30T03:48:47;191.83;;;26.73;;
19163;SDS011;9714;51.208;4.242;2022-11-30T03:51:16;233.60;;;28.47;;
19163;SDS011;9714;51.208;4.242;2022-11-30T03:53:43;381.00;;;34.03;;
19163;SDS011;9714;51.208;4.242;2022-11-30T03:56:10;187.17;;;26.80;;
19163;SDS011;9714;51.208;4.242;2022-11-30T03:58:38;243.23;;;25.83;;
19163;SDS011;9714;51.208;4.242;2022-11-30T04:01:07;154.67;;;24.27;;
19163;SDS011;9714;51.208;4.242;2022-11-30T04:03:35;180.20;;;24.17;;
19163;SDS011;9714;51.208;4.242;2022-11-30T04:06:03;139.13;;;22.33;;
19163;SDS011;9714;51.208;4.242;2022-11-30T04:08:32;174.63;;;23.73;;
19163;SDS011;9714;51.208;4.242;2022-11-30T04:11:00;103.47;;;25.00;;
19163;SDS011;9714;51.208;4.242;2022-11-30T04:13:28;210.30;;;26.60;;
19163;SDS011;9714;51.208;4.242;2022-11-30T04:15:57;168.77;;;26.70;;
19163;SDS011;9714;51.208;4.242;2022-11-30T04:18:25;133.23;;;23.77;;
19163;SDS011;9714;51.208;4.242;2022-11-30T04:20:53;125.53;;;22.70;;
19163;SDS011;9714;51.208;4.242;2022-11-30T04:23:23;153.17;;;23.60;;
19163;SDS011;9714;51.208;4.242;2022-11-30T04:25:52;96.53;;;22.30;;
19163;SDS011;9714;51.208;4.242;2022-11-30T04:28:19;125.43;;;22.40;;
19163;SDS011;9714;51.208;4.242;2022-11-30T04:30:46;163.40;;;24.60;;
19163;SDS011;9714;51.208;4.242;2022-11-30T04:33:13;100.37;;;24.47;;
19163;SDS011;9714;51.208;4.242;2022-11-30T04:35:42;174.57;;;26.53;;
19163;SDS011;9714;51.208;4.242;2022-11-30T04:38:10;151.90;;;23.30;;
19163;SDS011;9714;51.208;4.242;2022-11-30T04:40:39;241.37;;;27.97;;
19163;SDS011;9714;51.208;4.242;2022-11-30T04:43:07;139.80;;;23.60;;
19163;SDS011;9714;51.208;4.242;2022-11-30T04:45:36;215.10;;;27.47;;
19163;SDS011;9714;51.208;4.242;2022-11-30T04:48:04;279.53;;;30.90;;
19163;SDS011;9714;51.208;4.242;2022-11-30T04:50:31;111.93;;;25.27;;
19163;SDS011;9714;51.208;4.242;2022-11-30T04:52:58;180.43;;;27.67;;
19163;SDS011;9714;51.208;4.242;2022-11-30T04:55:25;260.90;;;28.07;;
19163;SDS011;9714;51.208;4.242;2022-11-30T04:57:52;97.40;;;22.77;;
19163;SDS011;9714;51.208;4.242;2022-11-30T05:00:21;87.07;;;23.83;;
19163;SDS011;9714;51.208;4.242;2022-11-30T05:02:48;103.33;;;26.13;;
19163;SDS011;9714;51.208;4.242;2022-11-30T05:05:15;163.40;;;25.10;;
19163;SDS011;9714;51.208;4.242;2022-11-30T05:07:43;161.47;;;26.63;;
19163;SDS011;9714;51.208;4.242;2022-11-30T05:10:15;92.73;;;23.10;;
19163;SDS011;9714;51.208;4.242;2022-11-30T05:12:42;109.67;;;24.13;;
19163;SDS011;9714;51.208;4.242;2022-11-30T05:15:09;149.37;;;25.97;;
19163;SDS011;9714;51.208;4.242;2022-11-30T05:17:37;236.80;;;29.23;;
19163;SDS011;9714;51.208;4.242;2022-11-30T05:20:05;206.60;;;27.53;;
19163;SDS011;9714;51.208;4.242;2022-11-30T05:22:32;116.37;;;25.37;;
19163;SDS011;9714;51.208;4.242;2022-11-30T05:25:00;220.13;;;28.87;;
19163;SDS011;9714;51.208;4.242;2022-11-30T05:27:27;216.40;;;27.70;;
19163;SDS011;9714;51.208;4.242;2022-11-30T05:29:54;194.37;;;26.73;;
19163;SDS011;9714;51.208;4.242;2022-11-30T05:32:21;250.23;;;28.70;;
19163;SDS011;9714;51.208;4.242;2022-11-30T05:34:49;230.07;;;28.40;;
19163;SDS011;9714;51.208;4.242;2022-11-30T05:37:16;210.80;;;34.70;;
19163;SDS011;9714;51.208;4.242;2022-11-30T05:39:43;183.57;;;27.93;;
19163;SDS011;9714;51.208;4.242;2022-11-30T05:42:10;115.37;;;25.43;;
19163;SDS011;9714;51.208;4.242;2022-11-30T05:44:37;189.80;;;29.67;;
19163;SDS011;9714;51.208;4.242;2022-11-30T05:47:04;139.40;;;26.60;;
19163;SDS011;9714;51.208;4.242;2022-11-30T05:49:31;198.17;;;27.60;;
19163;SDS011;9714;51.208;4.242;2022-11-30T05:51:59;295.53;;;30.10;;
19163;SDS011;9714;51.208;4.242;2022-11-30T05:54:26;241.13;;;27.50;;
19163;SDS011;9714;51.208;4.242;2022-11-30T05:56:53;183.97;;;25.50;;
19163;SDS011;9714;51.208;4.242;2022-11-30T05:59:20;158.07;;;25.83;;
19163;SDS011;9714;51.208;4.242;2022-11-30T06:01:47;175.60;;;27.37;;
19163;SDS011;9714;51.208;4.242;2022-11-30T06:04:16;235.90;;;27.80;;
19163;SDS011;9714;51.208;4.242;2022-11-30T06:06:43;275.10;;;29.10;;
19163;SDS011;9714;51.208;4.242;2022-11-30T06:09:12;95.33;;;23.43;;
19163;SDS011;9714;51.208;4.242;2022-11-30T06:11:39;97.40;;;23.13;;
19163;SDS011;9714;51.208;4.242;2022-11-30T06:14:08;175.90;;;24.60;;
19163;SDS011;9714;51.208;4.242;2022-11-30T06:16:36;161.60;;;23.37;;
19163;SDS011;9714;51.208;4.242;2022-11-30T06:19:04;235.00;;;25.30;;
19163;SDS011;9714;51.208;4.242;2022-11-30T06:21:31;177.90;;;25.40;;
19163;SDS011;9714;51.208;4.242;2022-11-30T06:23:59;253.40;;;27.70;;
19163;SDS011;9714;51.208;4.242;2022-11-30T06:26:28;197.90;;;24.83;;
19163;SDS011;9714;51.208;4.242;2022-11-30T06:28:55;126.63;;;23.40;;
19163;SDS011;9714;51.208;4.242;2022-11-30T06:31:22;145.40;;;25.67;;
19163;SDS011;9714;51.208;4.242;2022-11-30T06:33:50;94.03;;;23.27;;
19163;SDS011;9714;51.208;4.242;2022-11-30T06:36:19;180.83;;;24.00;;
19163;SDS011;9714;51.208;4.242;2022-11-30T06:38:47;141.07;;;22.80;;
19163;SDS011;9714;51.208;4.242;2022-11-30T06:41:15;145.17;;;22.83;;
19163;SDS011;9714;51.208;4.242;2022-11-30T06:43:43;120.50;;;22.63;;
19163;SDS011;9714;51.208;4.242;2022-11-30T06:46:10;142.97;;;23.23;;
19163;SDS011;9714;51.208;4.242;2022-11-30T06:48:37;150.20;;;23.73;;
19163;SDS011;9714;51.208;4.242;2022-11-30T06:51:04;95.57;;;23.00;;
19163;SDS011;9714;51.208;4.242;2022-11-30T06:53:32;140.50;;;25.43;;
19163;SDS011;9714;51.208;4.242;2022-11-30T06:56:02;72.63;;;22.93;;
19163;SDS011;9714;51.208;4.242;2022-11-30T06:58:30;158.37;;;24.23;;
19163;SDS011;9714;51.208;4.242;2022-11-30T07:00:58;115.40;;;23.77;;
19163;SDS011;9714;51.208;4.242;2022-11-30T07:03:25;149.03;;;24.17;;
19163;SDS011;9714;51.208;4.242;2022-11-30T07:05:53;134.77;;;23.27;;
19163;SDS011;9714;51.208;4.242;2022-11-30T07:08:20;85.83;;;22.83;;
19163;SDS011;9714;51.208;4.242;2022-11-30T07:10:49;86.53;;;25.07;;
19163;SDS011;9714;51.208;4.242;2022-11-30T07:13:17;182.13;;;28.10;;
19163;SDS011;9714;51.208;4.242;2022-11-30T07:15:45;167.07;;;26.47;;
19163;SDS011;9714;51.208;4.242;2022-11-30T07:18:13;93.00;;;25.73;;
19163;SDS011;9714;51.208;4.242;2022-11-30T07:20:40;123.57;;;25.20;;
19163;SDS011;9714;51.208;4.242;2022-11-30T07:23:07;96.80;;;23.90;;
19163;SDS011;9714;51.208;4.242;2022-11-30T07:25:52;63.17;;;25.03;;
19163;SDS011;9714;51.208;4.242;2022-11-30T07:28:34;228.77;;;29.47;;
19163;SDS011;9714;51.208;4.242;2022-11-30T07:31:12;105.87;;;24.80;;
19163;SDS011;9714;51.208;4.242;2022-11-30T07:33:45;127.77;;;27.93;;
19163;SDS011;9714;51.208;4.242;2022-11-30T07:36:14;156.67;;;27.87;;
19163;SDS011;9714;51.208;4.242;2022-11-30T07:38:42;111.53;;;25.63;;
19163;SDS011;9714;51.208;4.242;2022-11-30T07:41:09;118.27;;;25.03;;
19163;SDS011;9714;51.208;4.242;2022-11-30T07:43:38;100.17;;;26.33;;
19163;SDS011;9714;51.208;4.242;2022-11-30T07:46:05;150.77;;;26.93;;
19163;SDS011;9714;51.208;4.242;2022-11-30T07:48:34;136.17;;;27.07;;
19163;SDS011;9714;51.208;4.242;2022-11-30T07:51:02;89.67;;;24.80;;
19163;SDS011;9714;51.208;4.242;2022-11-30T07:53:31;119.83;;;25.60;;
19163;SDS011;9714;51.208;4.242;2022-11-30T07:56:02;99.97;;;27.17;;
19163;SDS011;9714;51.208;4.242;2022-11-30T07:58:30;99.17;;;28.17;;
19163;SDS011;9714;51.208;4.242;2022-11-30T08:01:01;98.87;;;28.30;;
19163;SDS011;9714;51.208;4.242;2022-11-30T08:03:29;116.87;;;29.47;;
19163;SDS011;9714;51.208;4.242;2022-11-30T08:06:00;110.10;;;30.60;;
19163;SDS011;9714;51.208;4.242;2022-11-30T08:08:31;121.43;;;29.37;;
19163;SDS011;9714;51.208;4.242;2022-11-30T08:11:01;96.13;;;29.07;;
19163;SDS011;9714;51.208;4.242;2022-11-30T08:13:29;93.03;;;26.40;;
19163;SDS011;9714;51.208;4.242;2022-11-30T08:15:59;109.57;;;27.83;;
19163;SDS011;9714;51.208;4.242;2022-11-30T08:18:30;130.53;;;28.00;;
19163;SDS011;9714;51.208;4.242;2022-11-30T08:20:57;110.60;;;28.43;;
19163;SDS011;9714;51.208;4.242;2022-11-30T08:23:24;121.70;;;27.23;;
19163;SDS011;9714;51.208;4.242;2022-11-30T08:25:55;118.60;;;27.23;;
19163;SDS011;9714;51.208;4.242;2022-11-30T08:28:27;139.43;;;27.23;;
19163;SDS011;9714;51.208;4.242;2022-11-30T08:31:01;156.63;;;27.70;;
19163;SDS011;9714;51.208;4.242;2022-11-30T08:33:30;172.97;;;35.10;;
19163;SDS011;9714;51.208;4.242;2022-11-30T08:36:04;181.83;;;27.73;;
19163;SDS011;9714;51.208;4.242;2022-11-30T08:38:32;137.53;;;29.60;;
19163;SDS011;9714;51.208;4.242;2022-11-30T08:41:00;102.50;;;28.10;;
19163;SDS011;9714;51.208;4.242;2022-11-30T08:43:27;117.30;;;29.63;;
19163;SDS011;9714;51.208;4.242;2022-11-30T08:45:54;94.37;;;29.43;;
19163;SDS011;9714;51.208;4.242;2022-11-30T08:48:21;94.70;;;25.83;;
19163;SDS011;9714;51.208;4.242;2022-11-30T08:50:48;85.20;;;27.30;;
19163;SDS011;9714;51.208;4.242;2022-11-30T08:53:15;101.77;;;26.00;;
19163;SDS011;9714;51.208;4.242;2022-11-30T08:55:42;102.40;;;27.90;;
19163;SDS011;9714;51.208;4.242;2022-11-30T08:58:18;138.03;;;26.63;;
19163;SDS011;9714;51.208;4.242;2022-11-30T09:00:47;90.97;;;26.07;;
19163;SDS011;9714;51.208;4.242;2022-11-30T09:06:21;143.00;;;33.97;;
19163;SDS011;9714;51.208;4.242;2022-11-30T09:11:43;137.07;;;37.17;;
19163;SDS011;9714;51.208;4.242;2022-11-30T09:14:12;172.30;;;37.40;;
19163;SDS011;9714;51.208;4.242;2022-11-30T09:16:40;136.70;;;39.83;;
19163;SDS011;9714;51.208;4.242;2022-11-30T09:19:07;207.83;;;37.53;;
19163;SDS011;9714;51.208;4.242;2022-11-30T09:21:35;163.27;;;38.93;;
19163;SDS011;9714;51.208;4.242;2022-11-30T09:24:01;133.13;;;39.33;;
19163;SDS011;9714;51.208;4.242;2022-11-30T09:26:29;150.73;;;38.97;;
19163;SDS011;9714;51.208;4.242;2022-11-30T09:28:56;138.47;;;38.63;;
19163;SDS011;9714;51.208;4.242;2022-11-30T09:31:25;195.27;;;40.90;;
19163;SDS011;9714;51.208;4.242;2022-11-30T09:33:54;232.20;;;40.53;;
19163;SDS011;9714;51.208;4.242;2022-11-30T09:36:23;157.47;;;41.53;;
19163;SDS011;9714;51.208;4.242;2022-11-30T09:38:53;156.97;;;41.70;;
19163;SDS011;9714;51.208;4.242;2022-11-30T09:41:28;122.00;;;40.27;;
19163;SDS011;9714;51.208;4.242;2022-11-30T09:44:14;187.53;;;43.03;;
19163;SDS011;9714;51.208;4.242;2022-11-30T09:46:53;137.47;;;41.40;;
19163;SDS011;9714;51.208;4.242;2022-11-30T09:49:29;144.53;;;42.40;;
19163;SDS011;9714;51.208;4.242;2022-11-30T09:51:59;128.43;;;42.97;;
19163;SDS011;9714;51.208;4.242;2022-11-30T09:54:31;121.67;;;40.57;;
19163;SDS011;9714;51.208;4.242;2022-11-30T09:57:03;123.90;;;40.77;;
19163;SDS011;9714;51.208;4.242;2022-11-30T09:59:45;142.83;;;40.23;;
19163;SDS011;9714;51.208;4.242;2022-11-30T10:02:18;164.77;;;40.00;;
19163;SDS011;9714;51.208;4.242;2022-11-30T10:04:46;110.57;;;35.93;;
19163;SDS011;9714;51.208;4.242;2022-11-30T10:07:15;126.17;;;36.67;;
19163;SDS011;9714;51.208;4.242;2022-11-30T10:10:00;118.23;;;36.37;;
19163;SDS011;9714;51.208;4.242;2022-11-30T10:12:33;138.60;;;37.57;;
19163;SDS011;9714;51.208;4.242;2022-11-30T10:15:11;180.30;;;38.23;;
19163;SDS011;9714;51.208;4.242;2022-11-30T10:17:48;326.57;;;41.50;;
19163;SDS011;9714;51.208;4.242;2022-11-30T10:20:25;242.07;;;41.50;;
19163;SDS011;9714;51.208;4.242;2022-11-30T10:23:05;128.90;;;38.83;;
19163;SDS011;9714;51.208;4.242;2022-11-30T10:25:42;266.83;;;41.67;;
19163;SDS011;9714;51.208;4.242;2022-11-30T10:28:21;119.37;;;38.60;;
19163;SDS011;9714;51.208;4.242;2022-11-30T10:30:55;204.27;;;39.50;;
19163;SDS011;9714;51.208;4.242;2022-11-30T10:33:25;256.07;;;40.93;;
19163;SDS011;9714;51.208;4.242;2022-11-30T10:35:59;270.70;;;43.97;;
19163;SDS011;9714;51.208;4.242;2022-11-30T10:38:33;258.27;;;42.17;;
19163;SDS011;9714;51.208;4.242;2022-11-30T10:41:07;214.10;;;43.87;;
19163;SDS011;9714;51.208;4.242;2022-11-30T10:43:41;149.70;;;46.97;;
19163;SDS011;9714;51.208;4.242;2022-11-30T10:46:14;147.47;;;46.83;;
19163;SDS011;9714;51.208;4.242;2022-11-30T10:48:55;149.50;;;47.60;;
19163;SDS011;9714;51.208;4.242;2022-11-30T10:51:26;155.90;;;46.47;;
19163;SDS011;9714;51.208;4.242;2022-11-30T10:53:55;127.97;;;45.80;;
19163;SDS011;9714;51.208;4.242;2022-11-30T10:56:25;114.93;;;42.77;;
19163;SDS011;9714;51.208;4.242;2022-11-30T10:58:53;122.97;;;45.37;;
19163;SDS011;9714;51.208;4.242;2022-11-30T11:01:28;124.43;;;46.17;;
19163;SDS011;9714;51.208;4.242;2022-11-30T11:04:08;142.57;;;47.77;;
19163;SDS011;9714;51.208;4.242;2022-11-30T11:06:40;131.43;;;47.53;;
19163;SDS011;9714;51.208;4.242;2022-11-30T11:09:32;129.27;;;47.97;;
19163;SDS011;9714;51.208;4.242;2022-11-30T11:12:02;149.23;;;52.40;;
19163;SDS011;9714;51.208;4.242;2022-11-30T11:14:30;157.37;;;53.17;;
19163;SDS011;9714;51.208;4.242;2022-11-30T11:16:58;152.50;;;47.40;;
19163;SDS011;9714;51.208;4.242;2022-11-30T11:19:32;137.43;;;47.60;;
19163;SDS011;9714;51.208;4.242;2022-11-30T11:22:02;141.33;;;48.60;;
19163;SDS011;9714;51.208;4.242;2022-11-30T11:24:32;137.60;;;47.57;;
19163;SDS011;9714;51.208;4.242;2022-11-30T11:27:00;136.07;;;45.50;;
19163;SDS011;9714;51.208;4.242;2022-11-30T11:29:29;156.30;;;49.57;;
19163;SDS011;9714;51.208;4.242;2022-11-30T11:32:05;126.60;;;48.17;;
19163;SDS011;9714;51.208;4.242;2022-11-30T11:34:48;127.23;;;45.60;;
19163;SDS011;9714;51.208;4.242;2022-11-30T11:37:20;125.40;;;44.63;;
19163;SDS011;9714;51.208;4.242;2022-11-30T11:39:57;139.27;;;48.03;;
19163;SDS011;9714;51.208;4.242;2022-11-30T11:42:26;129.40;;;48.73;;
19163;SDS011;9714;51.208;4.242;2022-11-30T11:44:57;129.83;;;47.17;;
19163;SDS011;9714;51.208;4.242;2022-11-30T11:47:26;132.83;;;49.00;;
19163;SDS011;9714;51.208;4.242;2022-11-30T11:50:05;142.83;;;49.17;;
19163;SDS011;9714;51.208;4.242;2022-11-30T11:52:48;126.67;;;45.63;;
19163;SDS011;9714;51.208;4.242;2022-11-30T11:55:16;117.67;;;46.70;;
19163;SDS011;9714;51.208;4.242;2022-11-30T11:57:48;129.20;;;47.50;;
19163;SDS011;9714;51.208;4.242;2022-11-30T12:00:20;114.13;;;44.20;;
19163;SDS011;9714;51.208;4.242;2022-11-30T12:02:51;131.13;;;49.93;;
19163;SDS011;9714;51.208;4.242;2022-11-30T12:05:25;144.50;;;52.50;;
19163;SDS011;9714;51.208;4.242;2022-11-30T12:08:09;148.23;;;51.20;;
19163;SDS011;9714;51.208;4.242;2022-11-30T12:10:43;148.73;;;52.57;;
19163;SDS011;9714;51.208;4.242;2022-11-30T12:13:16;137.30;;;53.20;;
19163;SDS011;9714;51.208;4.242;2022-11-30T12:15:57;146.83;;;53.37;;
19163;SDS011;9714;51.208;4.242;2022-11-30T12:18:32;135.37;;;51.83;;
19163;SDS011;9714;51.208;4.242;2022-11-30T12:21:09;146.50;;;55.70;;
19163;SDS011;9714;51.208;4.242;2022-11-30T12:23:52;143.17;;;53.33;;
19163;SDS011;9714;51.208;4.242;2022-11-30T12:26:31;134.10;;;49.70;;
19163;SDS011;9714;51.208;4.242;2022-11-30T12:29:20;129.00;;;49.73;;
19163;SDS011;9714;51.208;4.242;2022-11-30T12:34:46;119.40;;;45.90;;
19163;SDS011;9714;51.208;4.242;2022-11-30T12:37:25;123.43;;;48.37;;
19163;SDS011;9714;51.208;4.242;2022-11-30T12:40:07;127.70;;;48.57;;
19163;SDS011;9714;51.208;4.242;2022-11-30T12:42:45;124.47;;;48.27;;
19163;SDS011;9714;51.208;4.242;2022-11-30T12:45:24;130.90;;;49.47;;
19163;SDS011;9714;51.208;4.242;2022-11-30T12:47:58;135.00;;;50.40;;
19163;SDS011;9714;51.208;4.242;2022-11-30T12:50:49;119.07;;;47.33;;
19163;SDS011;9714;51.208;4.242;2022-11-30T12:53:28;126.53;;;49.13;;
19163;SDS011;9714;51.208;4.242;2022-11-30T12:56:03;115.60;;;47.63;;
19163;SDS011;9714;51.208;4.242;2022-11-30T12:58:38;119.40;;;46.40;;
19163;SDS011;9714;51.208;4.242;2022-11-30T13:01:17;114.23;;;46.83;;
19163;SDS011;9714;51.208;4.242;2022-11-30T13:04:12;118.87;;;47.33;;
19163;SDS011;9714;51.208;4.242;2022-11-30T13:06:45;112.30;;;46.93;;
19163;SDS011;9714;51.208;4.242;2022-11-30T13:09:21;117.13;;;44.93;;
19163;SDS011;9714;51.208;4.242;2022-11-30T13:12:00;106.67;;;46.10;;
19163;SDS011;9714;51.208;4.242;2022-11-30T13:14:38;104.37;;;44.30;;
19163;SDS011;9714;51.208;4.242;2022-11-30T13:17:17;110.27;;;46.37;;
19163;SDS011;9714;51.208;4.242;2022-11-30T13:19:47;116.10;;;48.00;;
19163;SDS011;9714;51.208;4.242;2022-11-30T13:25:17;125.23;;;49.87;;
19163;SDS011;9714;51.208;4.242;2022-11-30T13:27:50;118.47;;;49.43;;
19163;SDS011;9714;51.208;4.242;2022-11-30T13:30:27;124.50;;;50.43;;
19163;SDS011;9714;51.208;4.242;2022-11-30T13:36:30;125.40;;;49.37;;
19163;SDS011;9714;51.208;4.242;2022-11-30T13:41:50;104.33;;;48.90;;
19163;SDS011;9714;51.208;4.242;2022-11-30T13:48:17;109.80;;;50.20;;
19163;SDS011;9714;51.208;4.242;2022-11-30T13:50:58;100.60;;;48.30;;
19163;SDS011;9714;51.208;4.242;2022-11-30T13:56:05;85.73;;;45.73;;
19163;SDS011;9714;51.208;4.242;2022-11-30T14:08:39;75.40;;;40.73;;
19163;SDS011;9714;51.208;4.242;2022-11-30T14:17:15;81.20;;;42.53;;
19163;SDS011;9714;51.208;4.242;2022-11-30T14:19:46;78.33;;;42.57;;
19163;SDS011;9714;51.208;4.242;2022-11-30T14:22:22;78.40;;;42.87;;
19163;SDS011;9714;51.208;4.242;2022-11-30T14:24:54;76.20;;;41.83;;
19163;SDS011;9714;51.208;4.242;2022-11-30T14:27:24;82.77;;;42.30;;
19163;SDS011;9714;51.208;4.242;2022-11-30T14:29:58;76.63;;;42.27;;
19163;SDS011;9714;51.208;4.242;2022-11-30T14:32:34;88.13;;;44.03;;
19163;SDS011;9714;51.208;4.242;2022-11-30T14:37:44;85.07;;;43.37;;
19163;SDS011;9714;51.208;4.242;2022-11-30T14:40:21;84.30;;;41.47;;
19163;SDS011;9714;51.208;4.242;2022-11-30T14:42:51;78.90;;;42.50;;
19163;SDS011;9714;51.208;4.242;2022-11-30T14:45:25;85.80;;;44.90;;
19163;SDS011;9714;51.208;4.242;2022-11-30T14:48:02;79.23;;;43.53;;
19163;SDS011;9714;51.208;4.242;2022-11-30T14:50:33;80.70;;;44.07;;
19163;SDS011;9714;51.208;4.242;2022-11-30T14:53:09;86.50;;;43.60;;
19163;SDS011;9714;51.208;4.242;2022-11-30T14:55:48;84.70;;;45.70;;
19163;SDS011;9714;51.208;4.242;2022-11-30T14:58:25;92.23;;;45.37;;
19163;SDS011;9714;51.208;4.242;2022-11-30T15:00:57;84.60;;;45.17;;
19163;SDS011;9714;51.208;4.242;2022-11-30T15:03:31;81.27;;;44.10;;
19163;SDS011;9714;51.208;4.242;2022-11-30T15:06:00;83.07;;;43.30;;
19163;SDS011;9714;51.208;4.242;2022-11-30T15:08:32;81.63;;;43.83;;
19163;SDS011;9714;51.208;4.242;2022-11-30T15:11:10;76.83;;;42.67;;
19163;SDS011;9714;51.208;4.242;2022-11-30T15:13:49;88.33;;;42.23;;
19163;SDS011;9714;51.208;4.242;2022-11-30T15:16:19;76.30;;;43.00;;
19163;SDS011;9714;51.208;4.242;2022-11-30T15:18:53;79.27;;;42.40;;
19163;SDS011;9714;51.208;4.242;2022-11-30T15:21:28;74.73;;;39.70;;
19163;SDS011;9714;51.208;4.242;2022-11-30T15:23:59;82.60;;;41.67;;
19163;SDS011;9714;51.208;4.242;2022-11-30T15:26:30;73.90;;;38.93;;
19163;SDS011;9714;51.208;4.242;2022-11-30T15:29:03;73.03;;;39.63;;
19163;SDS011;9714;51.208;4.242;2022-11-30T15:31:37;73.17;;;37.77;;